sensor_id;sensor_type;location;lat;lon;timestamp;P1;durP1;ratioP1;P2;durP2;ratioP2
17947;SDS011;9099;47.958;11.366;2024-01-06T00:01:24;1.95;;;1.30;;
17947;SDS011;9099;47.958;11.366;2024-01-06T00:03:51;1.58;;;1.40;;
17947;SDS011;9099;47.958;11.366;2024-01-06T00:06:18;1.33;;;1.27;;
17947;SDS011;9099;47.958;11.366;2024-01-06T00:08:44;1.98;;;1.77;;
17947;SDS011;9099;47.958;11.366;2024-01-06T00:11:11;1.75;;;1.65;;
17947;SDS011;9099;47.958;11.366;2024-01-06T00:13:38;1.33;;;1.33;;
17947;SDS011;9099;47.958;11.366;2024-01-06T00:16:06;1.48;;;1.38;;
17947;SDS011;9099;47.958;11.366;2024-01-06T00:18:33;1.60;;;1.50;;
17947;SDS011;9099;47.958;11.366;2024-01-06T00:21:00;1.48;;;1.40;;
17947;SDS011;9099;47.958;11.366;2024-01-06T00:23:27;1.40;;;1.30;;
17947;SDS011;9099;47.958;11.366;2024-01-06T00:25:53;1.50;;;1.40;;
17947;SDS011;9099;47.958;11.366;2024-01-06T00:28:20;1.30;;;1.30;;
17947;SDS011;9099;47.958;11.366;2024-01-06T00:30:47;1.48;;;1.10;;
17947;SDS011;9099;47.958;11.366;2024-01-06T00:33:15;1.50;;;1.40;;
17947;SDS011;9099;47.958;11.366;2024-01-06T00:35:42;1.50;;;1.40;;
17947;SDS011;9099;47.958;11.366;2024-01-06T00:38:09;1.77;;;1.60;;
17947;SDS011;9099;47.958;11.366;2024-01-06T00:40:36;1.50;;;1.40;;
17947;SDS011;9099;47.958;11.366;2024-01-06T00:43:03;1.63;;;1.52;;
17947;SDS011;9099;47.958;11.366;2024-01-06T00:45:30;1.48;;;1.38;;
17947;SDS011;9099;47.958;11.366;2024-01-06T00:47:56;1.30;;;1.20;;
17947;SDS011;9099;47.958;11.366;2024-01-06T00:50:25;1.60;;;1.50;;
17947;SDS011;9099;47.958;11.366;2024-01-06T00:52:51;1.52;;;1.42;;
17947;SDS011;9099;47.958;11.366;2024-01-06T00:55:18;2.22;;;2.05;;
17947;SDS011;9099;47.958;11.366;2024-01-06T00:57:45;1.52;;;1.42;;
17947;SDS011;9099;47.958;11.366;2024-01-06T01:00:12;1.88;;;1.77;;
17947;SDS011;9099;47.958;11.366;2024-01-06T01:02:39;1.60;;;1.50;;
17947;SDS011;9099;47.958;11.366;2024-01-06T01:05:06;1.90;;;1.80;;
17947;SDS011;9099;47.958;11.366;2024-01-06T01:07:35;1.73;;;1.63;;
17947;SDS011;9099;47.958;11.366;2024-01-06T01:10:02;1.27;;;1.25;;
17947;SDS011;9099;47.958;11.366;2024-01-06T01:12:29;1.67;;;1.58;;
17947;SDS011;9099;47.958;11.366;2024-01-06T01:14:56;1.65;;;1.55;;
17947;SDS011;9099;47.958;11.366;2024-01-06T01:17:24;2.00;;;1.90;;
17947;SDS011;9099;47.958;11.366;2024-01-06T01:19:51;2.25;;;1.80;;
17947;SDS011;9099;47.958;11.366;2024-01-06T01:22:17;1.75;;;1.65;;
17947;SDS011;9099;47.958;11.366;2024-01-06T01:24:45;3.33;;;2.55;;
17947;SDS011;9099;47.958;11.366;2024-01-06T01:27:12;2.45;;;1.80;;
17947;SDS011;9099;47.958;11.366;2024-01-06T01:29:39;1.67;;;1.58;;
17947;SDS011;9099;47.958;11.366;2024-01-06T01:32:06;8.38;;;2.42;;
17947;SDS011;9099;47.958;11.366;2024-01-06T01:34:33;1.70;;;1.60;;
17947;SDS011;9099;47.958;11.366;2024-01-06T01:37:00;1.35;;;1.25;;
17947;SDS011;9099;47.958;11.366;2024-01-06T01:39:27;0.93;;;0.93;;
17947;SDS011;9099;47.958;11.366;2024-01-06T01:41:55;1.20;;;0.85;;
17947;SDS011;9099;47.958;11.366;2024-01-06T01:44:22;0.90;;;0.90;;
17947;SDS011;9099;47.958;11.366;2024-01-06T01:46:49;0.80;;;0.80;;
17947;SDS011;9099;47.958;11.366;2024-01-06T01:49:16;0.93;;;0.60;;
17947;SDS011;9099;47.958;11.366;2024-01-06T01:51:42;0.70;;;0.63;;
17947;SDS011;9099;47.958;11.366;2024-01-06T01:54:10;0.98;;;0.70;;
17947;SDS011;9099;47.958;11.366;2024-01-06T01:56:37;0.70;;;0.70;;
17947;SDS011;9099;47.958;11.366;2024-01-06T01:59:09;0.63;;;0.60;;
17947;SDS011;9099;47.958;11.366;2024-01-06T02:01:37;1.30;;;0.70;;
17947;SDS011;9099;47.958;11.366;2024-01-06T02:04:05;0.68;;;0.57;;
17947;SDS011;9099;47.958;11.366;2024-01-06T02:06:32;1.38;;;0.70;;
17947;SDS011;9099;47.958;11.366;2024-01-06T02:08:59;0.60;;;0.60;;
17947;SDS011;9099;47.958;11.366;2024-01-06T02:11:26;0.50;;;0.50;;
17947;SDS011;9099;47.958;11.366;2024-01-06T02:13:52;0.50;;;0.50;;
17947;SDS011;9099;47.958;11.366;2024-01-06T02:16:21;0.68;;;0.68;;
17947;SDS011;9099;47.958;11.366;2024-01-06T02:18:47;0.70;;;0.70;;
17947;SDS011;9099;47.958;11.366;2024-01-06T02:21:14;0.47;;;0.47;;
17947;SDS011;9099;47.958;11.366;2024-01-06T02:23:44;0.52;;;0.52;;
17947;SDS011;9099;47.958;11.366;2024-01-06T02:26:12;0.50;;;0.50;;
17947;SDS011;9099;47.958;11.366;2024-01-06T02:28:40;0.63;;;0.63;;
17947;SDS011;9099;47.958;11.366;2024-01-06T02:31:06;0.60;;;0.60;;
17947;SDS011;9099;47.958;11.366;2024-01-06T02:33:33;0.80;;;0.75;;
17947;SDS011;9099;47.958;11.366;2024-01-06T02:36:01;0.70;;;0.70;;
17947;SDS011;9099;47.958;11.366;2024-01-06T02:38:28;0.70;;;0.70;;
17947;SDS011;9099;47.958;11.366;2024-01-06T02:40:56;0.40;;;0.40;;
17947;SDS011;9099;47.958;11.366;2024-01-06T02:43:23;0.50;;;0.50;;
17947;SDS011;9099;47.958;11.366;2024-01-06T02:45:49;0.30;;;0.30;;
17947;SDS011;9099;47.958;11.366;2024-01-06T02:48:16;0.25;;;0.25;;
17947;SDS011;9099;47.958;11.366;2024-01-06T02:50:43;0.10;;;0.10;;
17947;SDS011;9099;47.958;11.366;2024-01-06T02:53:10;0.10;;;0.10;;
17947;SDS011;9099;47.958;11.366;2024-01-06T02:55:37;0.00;;;0.00;;
17947;SDS011;9099;47.958;11.366;2024-01-06T02:58:05;0.20;;;0.20;;
17947;SDS011;9099;47.958;11.366;2024-01-06T03:00:32;0.10;;;0.10;;
17947;SDS011;9099;47.958;11.366;2024-01-06T03:02:59;0.10;;;0.00;;
17947;SDS011;9099;47.958;11.366;2024-01-06T03:05:26;0.40;;;0.20;;
17947;SDS011;9099;47.958;11.366;2024-01-06T03:07:53;0.10;;;0.10;;
17947;SDS011;9099;47.958;11.366;2024-01-06T03:10:19;0.00;;;0.00;;
17947;SDS011;9099;47.958;11.366;2024-01-06T03:12:46;0.10;;;0.10;;
17947;SDS011;9099;47.958;11.366;2024-01-06T03:15:15;0.00;;;0.00;;
17947;SDS011;9099;47.958;11.366;2024-01-06T03:17:42;0.00;;;0.00;;
17947;SDS011;9099;47.958;11.366;2024-01-06T03:20:09;0.10;;;0.10;;
17947;SDS011;9099;47.958;11.366;2024-01-06T03:22:36;0.10;;;0.10;;
17947;SDS011;9099;47.958;11.366;2024-01-06T03:25:03;0.00;;;0.00;;
17947;SDS011;9099;47.958;11.366;2024-01-06T03:27:31;0.10;;;0.10;;
17947;SDS011;9099;47.958;11.366;2024-01-06T03:29:58;0.10;;;0.10;;
17947;SDS011;9099;47.958;11.366;2024-01-06T03:32:26;0.10;;;0.10;;
17947;SDS011;9099;47.958;11.366;2024-01-06T03:34:53;0.10;;;0.10;;
17947;SDS011;9099;47.958;11.366;2024-01-06T03:37:20;0.10;;;0.10;;
17947;SDS011;9099;47.958;11.366;2024-01-06T03:39:48;0.22;;;0.10;;
17947;SDS011;9099;47.958;11.366;2024-01-06T03:42:15;0.00;;;0.00;;
17947;SDS011;9099;47.958;11.366;2024-01-06T03:44:41;0.10;;;0.10;;
17947;SDS011;9099;47.958;11.366;2024-01-06T03:47:08;0.03;;;0.00;;
17947;SDS011;9099;47.958;11.366;2024-01-06T03:49:37;0.10;;;0.08;;
17947;SDS011;9099;47.958;11.366;2024-01-06T03:52:04;0.00;;;0.00;;
17947;SDS011;9099;47.958;11.366;2024-01-06T03:54:31;0.00;;;0.00;;
17947;SDS011;9099;47.958;11.366;2024-01-06T03:56:58;0.00;;;0.00;;
17947;SDS011;9099;47.958;11.366;2024-01-06T03:59:25;0.00;;;0.00;;
17947;SDS011;9099;47.958;11.366;2024-01-06T04:01:51;0.03;;;0.03;;
17947;SDS011;9099;47.958;11.366;2024-01-06T04:04:18;0.10;;;0.10;;
17947;SDS011;9099;47.958;11.366;2024-01-06T04:06:47;0.28;;;0.10;;
17947;SDS011;9099;47.958;11.366;2024-01-06T04:09:13;0.00;;;0.00;;
17947;SDS011;9099;47.958;11.366;2024-01-06T04:11:41;0.28;;;0.10;;
17947;SDS011;9099;47.958;11.366;2024-01-06T04:14:08;0.10;;;0.10;;
17947;SDS011;9099;47.958;11.366;2024-01-06T04:16:34;0.00;;;0.00;;
17947;SDS011;9099;47.958;11.366;2024-01-06T04:19:01;0.00;;;0.00;;
17947;SDS011;9099;47.958;11.366;2024-01-06T04:21:28;0.00;;;0.00;;
17947;SDS011;9099;47.958;11.366;2024-01-06T04:23:56;0.13;;;0.10;;
17947;SDS011;9099;47.958;11.366;2024-01-06T04:26:22;0.22;;;0.10;;
17947;SDS011;9099;47.958;11.366;2024-01-06T04:28:50;0.10;;;0.10;;
17947;SDS011;9099;47.958;11.366;2024-01-06T04:31:16;0.00;;;0.00;;
17947;SDS011;9099;47.958;11.366;2024-01-06T04:33:43;0.00;;;0.00;;
17947;SDS011;9099;47.958;11.366;2024-01-06T04:36:10;0.05;;;0.05;;
17947;SDS011;9099;47.958;11.366;2024-01-06T04:38:37;0.10;;;0.10;;
17947;SDS011;9099;47.958;11.366;2024-01-06T04:41:06;0.00;;;0.00;;
17947;SDS011;9099;47.958;11.366;2024-01-06T04:43:33;0.10;;;0.10;;
17947;SDS011;9099;47.958;11.366;2024-01-06T04:45:59;0.00;;;0.00;;
17947;SDS011;9099;47.958;11.366;2024-01-06T04:48:27;0.10;;;0.10;;
17947;SDS011;9099;47.958;11.366;2024-01-06T04:50:54;0.10;;;0.10;;
17947;SDS011;9099;47.958;11.366;2024-01-06T04:53:21;0.10;;;0.10;;
17947;SDS011;9099;47.958;11.366;2024-01-06T04:55:48;0.10;;;0.10;;
17947;SDS011;9099;47.958;11.366;2024-01-06T04:58:16;0.13;;;0.10;;
17947;SDS011;9099;47.958;11.366;2024-01-06T05:00:43;0.10;;;0.10;;
17947;SDS011;9099;47.958;11.366;2024-01-06T05:03:09;0.10;;;0.10;;
17947;SDS011;9099;47.958;11.366;2024-01-06T05:05:36;0.98;;;0.10;;
17947;SDS011;9099;47.958;11.366;2024-01-06T05:08:03;0.20;;;0.20;;
17947;SDS011;9099;47.958;11.366;2024-01-06T05:10:30;0.13;;;0.10;;
17947;SDS011;9099;47.958;11.366;2024-01-06T05:12:57;0.10;;;0.10;;
17947;SDS011;9099;47.958;11.366;2024-01-06T05:15:25;0.00;;;0.00;;
17947;SDS011;9099;47.958;11.366;2024-01-06T05:17:52;0.05;;;0.05;;
17947;SDS011;9099;47.958;11.366;2024-01-06T05:20:19;0.70;;;0.57;;
17947;SDS011;9099;47.958;11.366;2024-01-06T05:22:46;0.10;;;0.10;;
17947;SDS011;9099;47.958;11.366;2024-01-06T05:25:13;0.10;;;0.10;;
17947;SDS011;9099;47.958;11.366;2024-01-06T05:27:40;0.10;;;0.10;;
17947;SDS011;9099;47.958;11.366;2024-01-06T05:30:07;0.10;;;0.10;;
17947;SDS011;9099;47.958;11.366;2024-01-06T05:32:36;0.10;;;0.10;;
17947;SDS011;9099;47.958;11.366;2024-01-06T05:35:03;0.00;;;0.00;;
17947;SDS011;9099;47.958;11.366;2024-01-06T05:37:31;0.75;;;0.10;;
17947;SDS011;9099;47.958;11.366;2024-01-06T05:39:58;0.00;;;0.00;;
17947;SDS011;9099;47.958;11.366;2024-01-06T05:42:26;0.00;;;0.00;;
17947;SDS011;9099;47.958;11.366;2024-01-06T05:44:53;0.10;;;0.10;;
17947;SDS011;9099;47.958;11.366;2024-01-06T05:47:20;0.10;;;0.10;;
17947;SDS011;9099;47.958;11.366;2024-01-06T05:49:48;0.10;;;0.10;;
17947;SDS011;9099;47.958;11.366;2024-01-06T05:52:15;0.22;;;0.20;;
17947;SDS011;9099;47.958;11.366;2024-01-06T05:54:42;0.10;;;0.10;;
17947;SDS011;9099;47.958;11.366;2024-01-06T05:57:08;0.22;;;0.13;;
17947;SDS011;9099;47.958;11.366;2024-01-06T05:59:35;0.10;;;0.10;;
17947;SDS011;9099;47.958;11.366;2024-01-06T06:02:02;0.10;;;0.10;;
17947;SDS011;9099;47.958;11.366;2024-01-06T06:04:29;0.13;;;0.13;;
17947;SDS011;9099;47.958;11.366;2024-01-06T06:06:57;0.10;;;0.10;;
17947;SDS011;9099;47.958;11.366;2024-01-06T06:09:24;0.10;;;0.10;;
17947;SDS011;9099;47.958;11.366;2024-01-06T06:11:53;0.10;;;0.10;;
17947;SDS011;9099;47.958;11.366;2024-01-06T06:14:20;0.13;;;0.13;;
17947;SDS011;9099;47.958;11.366;2024-01-06T06:16:47;0.13;;;0.13;;
17947;SDS011;9099;47.958;11.366;2024-01-06T06:19:14;0.10;;;0.10;;
17947;SDS011;9099;47.958;11.366;2024-01-06T06:21:42;0.30;;;0.30;;
17947;SDS011;9099;47.958;11.366;2024-01-06T06:24:10;0.10;;;0.10;;
17947;SDS011;9099;47.958;11.366;2024-01-06T06:26:37;0.08;;;0.05;;
17947;SDS011;9099;47.958;11.366;2024-01-06T06:29:04;0.20;;;0.20;;
17947;SDS011;9099;47.958;11.366;2024-01-06T06:31:31;0.10;;;0.10;;
17947;SDS011;9099;47.958;11.366;2024-01-06T06:33:58;0.10;;;0.10;;
17947;SDS011;9099;47.958;11.366;2024-01-06T06:36:25;0.10;;;0.10;;
17947;SDS011;9099;47.958;11.366;2024-01-06T06:38:51;0.20;;;0.20;;
17947;SDS011;9099;47.958;11.366;2024-01-06T06:41:20;0.20;;;0.20;;
17947;SDS011;9099;47.958;11.366;2024-01-06T06:43:47;0.10;;;0.10;;
17947;SDS011;9099;47.958;11.366;2024-01-06T06:46:14;0.20;;;0.20;;
17947;SDS011;9099;47.958;11.366;2024-01-06T06:48:41;0.10;;;0.10;;
17947;SDS011;9099;47.958;11.366;2024-01-06T06:51:07;0.20;;;0.20;;
17947;SDS011;9099;47.958;11.366;2024-01-06T06:53:35;0.30;;;0.20;;
17947;SDS011;9099;47.958;11.366;2024-01-06T06:56:02;0.10;;;0.10;;
17947;SDS011;9099;47.958;11.366;2024-01-06T06:58:31;0.10;;;0.10;;
17947;SDS011;9099;47.958;11.366;2024-01-06T07:00:58;0.60;;;0.60;;
17947;SDS011;9099;47.958;11.366;2024-01-06T07:03:25;0.65;;;0.65;;
17947;SDS011;9099;47.958;11.366;2024-01-06T07:05:52;0.98;;;0.98;;
17947;SDS011;9099;47.958;11.366;2024-01-06T07:08:19;0.80;;;0.80;;
17947;SDS011;9099;47.958;11.366;2024-01-06T07:10:46;0.77;;;0.77;;
17947;SDS011;9099;47.958;11.366;2024-01-06T07:13:13;0.85;;;0.85;;
17947;SDS011;9099;47.958;11.366;2024-01-06T07:15:41;1.30;;;1.30;;
17947;SDS011;9099;47.958;11.366;2024-01-06T07:18:08;0.63;;;0.63;;
17947;SDS011;9099;47.958;11.366;2024-01-06T07:20:35;0.70;;;0.70;;
17947;SDS011;9099;47.958;11.366;2024-01-06T07:23:02;0.57;;;0.52;;
17947;SDS011;9099;47.958;11.366;2024-01-06T07:25:29;0.60;;;0.60;;
17947;SDS011;9099;47.958;11.366;2024-01-06T07:27:56;0.50;;;0.50;;
17947;SDS011;9099;47.958;11.366;2024-01-06T07:30:23;0.60;;;0.60;;
17947;SDS011;9099;47.958;11.366;2024-01-06T07:32:51;0.73;;;0.73;;
17947;SDS011;9099;47.958;11.366;2024-01-06T07:35:18;0.73;;;0.73;;
17947;SDS011;9099;47.958;11.366;2024-01-06T07:37:45;0.80;;;0.80;;
17947;SDS011;9099;47.958;11.366;2024-01-06T07:40:12;0.95;;;0.95;;
17947;SDS011;9099;47.958;11.366;2024-01-06T07:42:41;0.90;;;0.90;;
17947;SDS011;9099;47.958;11.366;2024-01-06T07:45:08;0.98;;;0.98;;
17947;SDS011;9099;47.958;11.366;2024-01-06T07:47:35;1.10;;;1.10;;
17947;SDS011;9099;47.958;11.366;2024-01-06T07:50:05;1.08;;;1.08;;
17947;SDS011;9099;47.958;11.366;2024-01-06T07:52:33;0.90;;;0.90;;
17947;SDS011;9099;47.958;11.366;2024-01-06T07:55:00;0.90;;;0.90;;
17947;SDS011;9099;47.958;11.366;2024-01-06T07:57:28;1.30;;;1.17;;
17947;SDS011;9099;47.958;11.366;2024-01-06T07:59:54;1.13;;;1.13;;
17947;SDS011;9099;47.958;11.366;2024-01-06T08:02:21;1.48;;;1.15;;
17947;SDS011;9099;47.958;11.366;2024-01-06T08:04:48;1.60;;;1.50;;
17947;SDS011;9099;47.958;11.366;2024-01-06T08:07:16;1.45;;;1.38;;
17947;SDS011;9099;47.958;11.366;2024-01-06T08:09:43;1.40;;;1.40;;
17947;SDS011;9099;47.958;11.366;2024-01-06T08:12:10;1.25;;;1.25;;
17947;SDS011;9099;47.958;11.366;2024-01-06T08:14:37;1.17;;;1.17;;
17947;SDS011;9099;47.958;11.366;2024-01-06T08:17:04;1.08;;;1.08;;
17947;SDS011;9099;47.958;11.366;2024-01-06T08:19:31;1.23;;;1.23;;
17947;SDS011;9099;47.958;11.366;2024-01-06T08:21:58;1.13;;;1.13;;
17947;SDS011;9099;47.958;11.366;2024-01-06T08:24:26;1.45;;;1.35;;
17947;SDS011;9099;47.958;11.366;2024-01-06T08:26:53;1.38;;;1.38;;
17947;SDS011;9099;47.958;11.366;2024-01-06T08:29:20;1.60;;;1.50;;
17947;SDS011;9099;47.958;11.366;2024-01-06T08:31:47;1.45;;;1.40;;
17947;SDS011;9099;47.958;11.366;2024-01-06T08:34:17;1.40;;;1.30;;
17947;SDS011;9099;47.958;11.366;2024-01-06T08:36:43;1.80;;;1.70;;
17947;SDS011;9099;47.958;11.366;2024-01-06T08:39:11;1.90;;;1.80;;
17947;SDS011;9099;47.958;11.366;2024-01-06T08:41:39;1.70;;;1.60;;
17947;SDS011;9099;47.958;11.366;2024-01-06T08:44:06;1.70;;;1.60;;
17947;SDS011;9099;47.958;11.366;2024-01-06T08:46:33;1.63;;;1.52;;
17947;SDS011;9099;47.958;11.366;2024-01-06T08:48:59;2.05;;;1.95;;
17947;SDS011;9099;47.958;11.366;2024-01-06T08:51:26;1.80;;;1.70;;
17947;SDS011;9099;47.958;11.366;2024-01-06T08:53:53;2.40;;;2.20;;
17947;SDS011;9099;47.958;11.366;2024-01-06T08:56:20;1.92;;;1.83;;
17947;SDS011;9099;47.958;11.366;2024-01-06T08:58:48;1.98;;;1.88;;
17947;SDS011;9099;47.958;11.366;2024-01-06T09:01:15;1.77;;;1.67;;
17947;SDS011;9099;47.958;11.366;2024-01-06T09:03:42;1.98;;;1.88;;
17947;SDS011;9099;47.958;11.366;2024-01-06T09:06:09;1.75;;;1.65;;
17947;SDS011;9099;47.958;11.366;2024-01-06T09:08:35;1.95;;;1.85;;
17947;SDS011;9099;47.958;11.366;2024-01-06T09:11:02;1.88;;;1.77;;
17947;SDS011;9099;47.958;11.366;2024-01-06T09:13:29;1.67;;;1.58;;
17947;SDS011;9099;47.958;11.366;2024-01-06T09:15:58;2.13;;;2.03;;
17947;SDS011;9099;47.958;11.366;2024-01-06T09:18:25;1.60;;;1.50;;
17947;SDS011;9099;47.958;11.366;2024-01-06T09:20:52;1.98;;;1.88;;
17947;SDS011;9099;47.958;11.366;2024-01-06T09:23:19;1.80;;;1.70;;
17947;SDS011;9099;47.958;11.366;2024-01-06T09:25:46;1.98;;;1.88;;
17947;SDS011;9099;47.958;11.366;2024-01-06T09:28:14;2.05;;;1.95;;
17947;SDS011;9099;47.958;11.366;2024-01-06T09:30:41;2.00;;;1.90;;
17947;SDS011;9099;47.958;11.366;2024-01-06T09:33:09;1.75;;;1.65;;
17947;SDS011;9099;47.958;11.366;2024-01-06T09:35:40;1.60;;;1.50;;
17947;SDS011;9099;47.958;11.366;2024-01-06T09:38:08;1.90;;;1.80;;
17947;SDS011;9099;47.958;11.366;2024-01-06T09:40:35;1.80;;;1.70;;
17947;SDS011;9099;47.958;11.366;2024-01-06T09:43:08;1.90;;;1.80;;
17947;SDS011;9099;47.958;11.366;2024-01-06T09:45:36;1.92;;;1.83;;
17947;SDS011;9099;47.958;11.366;2024-01-06T09:48:04;1.73;;;1.63;;
17947;SDS011;9099;47.958;11.366;2024-01-06T09:50:37;1.92;;;1.80;;
17947;SDS011;9099;47.958;11.366;2024-01-06T09:53:06;1.60;;;1.52;;
17947;SDS011;9099;47.958;11.366;2024-01-06T09:55:36;2.20;;;2.10;;
17947;SDS011;9099;47.958;11.366;2024-01-06T09:58:03;2.33;;;2.22;;
17947;SDS011;9099;47.958;11.366;2024-01-06T10:00:31;2.15;;;1.95;;
17947;SDS011;9099;47.958;11.366;2024-01-06T10:02:58;2.20;;;2.10;;
17947;SDS011;9099;47.958;11.366;2024-01-06T10:05:25;2.10;;;2.00;;
17947;SDS011;9099;47.958;11.366;2024-01-06T10:07:53;2.20;;;2.00;;
17947;SDS011;9099;47.958;11.366;2024-01-06T10:10:21;2.45;;;2.35;;
17947;SDS011;9099;47.958;11.366;2024-01-06T10:12:49;2.15;;;2.00;;
17947;SDS011;9099;47.958;11.366;2024-01-06T10:15:19;2.20;;;2.10;;
17947;SDS011;9099;47.958;11.366;2024-01-06T10:17:46;2.00;;;1.90;;
17947;SDS011;9099;47.958;11.366;2024-01-06T10:20:13;2.10;;;2.00;;
17947;SDS011;9099;47.958;11.366;2024-01-06T10:22:41;2.50;;;2.30;;
17947;SDS011;9099;47.958;11.366;2024-01-06T10:25:10;2.80;;;2.60;;
17947;SDS011;9099;47.958;11.366;2024-01-06T10:27:37;3.85;;;3.40;;
17947;SDS011;9099;47.958;11.366;2024-01-06T10:30:05;4.07;;;3.63;;
17947;SDS011;9099;47.958;11.366;2024-01-06T10:32:33;3.55;;;3.25;;
17947;SDS011;9099;47.958;11.366;2024-01-06T10:35:02;3.30;;;3.00;;
17947;SDS011;9099;47.958;11.366;2024-01-06T10:37:31;2.40;;;2.30;;
17947;SDS011;9099;47.958;11.366;2024-01-06T10:40:07;2.05;;;1.95;;
17947;SDS011;9099;47.958;11.366;2024-01-06T10:42:37;2.20;;;2.10;;
17947;SDS011;9099;47.958;11.366;2024-01-06T10:45:06;1.67;;;1.58;;
17947;SDS011;9099;47.958;11.366;2024-01-06T10:47:34;1.58;;;1.48;;
17947;SDS011;9099;47.958;11.366;2024-01-06T10:50:02;2.00;;;1.90;;
17947;SDS011;9099;47.958;11.366;2024-01-06T10:52:29;3.55;;;3.00;;
17947;SDS011;9099;47.958;11.366;2024-01-06T10:54:57;1.50;;;1.40;;
17947;SDS011;9099;47.958;11.366;2024-01-06T10:57:26;2.70;;;2.50;;
17947;SDS011;9099;47.958;11.366;2024-01-06T10:59:57;1.70;;;1.60;;
17947;SDS011;9099;47.958;11.366;2024-01-06T11:02:24;1.95;;;1.85;;
17947;SDS011;9099;47.958;11.366;2024-01-06T11:04:52;1.80;;;1.70;;
17947;SDS011;9099;47.958;11.366;2024-01-06T11:07:20;2.00;;;1.80;;
17947;SDS011;9099;47.958;11.366;2024-01-06T11:09:50;1.50;;;1.40;;
17947;SDS011;9099;47.958;11.366;2024-01-06T11:12:20;1.40;;;1.30;;
17947;SDS011;9099;47.958;11.366;2024-01-06T11:14:48;1.52;;;1.42;;
17947;SDS011;9099;47.958;11.366;2024-01-06T11:17:28;1.48;;;1.38;;
17947;SDS011;9099;47.958;11.366;2024-01-06T11:20:18;2.20;;;1.95;;
17947;SDS011;9099;47.958;11.366;2024-01-06T11:22:45;1.90;;;1.80;;
17947;SDS011;9099;47.958;11.366;2024-01-06T11:25:13;1.95;;;1.85;;
17947;SDS011;9099;47.958;11.366;2024-01-06T11:27:42;1.60;;;1.50;;
17947;SDS011;9099;47.958;11.366;2024-01-06T11:30:18;2.00;;;1.80;;
17947;SDS011;9099;47.958;11.366;2024-01-06T11:32:46;1.70;;;1.60;;
17947;SDS011;9099;47.958;11.366;2024-01-06T11:35:13;2.15;;;1.90;;
17947;SDS011;9099;47.958;11.366;2024-01-06T11:37:53;2.15;;;1.90;;
17947;SDS011;9099;47.958;11.366;2024-01-06T11:40:22;1.90;;;1.70;;
17947;SDS011;9099;47.958;11.366;2024-01-06T11:43:01;1.60;;;1.50;;
17947;SDS011;9099;47.958;11.366;2024-01-06T11:45:32;2.40;;;1.90;;
17947;SDS011;9099;47.958;11.366;2024-01-06T11:48:00;4.90;;;4.38;;
17947;SDS011;9099;47.958;11.366;2024-01-06T11:50:28;2.67;;;2.47;;
17947;SDS011;9099;47.958;11.366;2024-01-06T11:52:56;2.50;;;2.30;;
17947;SDS011;9099;47.958;11.366;2024-01-06T11:55:24;2.05;;;1.95;;
17947;SDS011;9099;47.958;11.366;2024-01-06T11:57:53;2.65;;;2.45;;
17947;SDS011;9099;47.958;11.366;2024-01-06T12:00:21;2.00;;;1.90;;
17947;SDS011;9099;47.958;11.366;2024-01-06T12:02:49;2.30;;;2.10;;
17947;SDS011;9099;47.958;11.366;2024-01-06T12:05:21;2.10;;;1.90;;
17947;SDS011;9099;47.958;11.366;2024-01-06T12:07:53;2.08;;;1.90;;
17947;SDS011;9099;47.958;11.366;2024-01-06T12:10:21;1.85;;;1.75;;
17947;SDS011;9099;47.958;11.366;2024-01-06T12:12:58;1.50;;;1.40;;
17947;SDS011;9099;47.958;11.366;2024-01-06T12:15:26;2.20;;;1.70;;
17947;SDS011;9099;47.958;11.366;2024-01-06T12:17:55;2.30;;;2.10;;
17947;SDS011;9099;47.958;11.366;2024-01-06T12:20:22;3.05;;;2.42;;
17947;SDS011;9099;47.958;11.366;2024-01-06T12:22:50;2.30;;;2.10;;
17947;SDS011;9099;47.958;11.366;2024-01-06T12:25:18;2.25;;;2.05;;
17947;SDS011;9099;47.958;11.366;2024-01-06T12:27:47;2.30;;;1.77;;
17947;SDS011;9099;47.958;11.366;2024-01-06T12:30:15;2.78;;;2.13;;
17947;SDS011;9099;47.958;11.366;2024-01-06T12:32:44;2.42;;;1.92;;
17947;SDS011;9099;47.958;11.366;2024-01-06T12:35:13;1.80;;;1.70;;
17947;SDS011;9099;47.958;11.366;2024-01-06T12:37:41;1.92;;;1.63;;
17947;SDS011;9099;47.958;11.366;2024-01-06T12:40:10;1.77;;;1.52;;
17947;SDS011;9099;47.958;11.366;2024-01-06T12:42:40;2.30;;;1.80;;
17947;SDS011;9099;47.958;11.366;2024-01-06T12:45:07;1.92;;;1.50;;
17947;SDS011;9099;47.958;11.366;2024-01-06T12:47:36;2.88;;;1.90;;
17947;SDS011;9099;47.958;11.366;2024-01-06T12:50:03;3.70;;;2.30;;
17947;SDS011;9099;47.958;11.366;2024-01-06T12:52:32;2.22;;;2.00;;
17947;SDS011;9099;47.958;11.366;2024-01-06T12:54:59;2.13;;;1.92;;
17947;SDS011;9099;47.958;11.366;2024-01-06T12:57:28;2.80;;;2.10;;
17947;SDS011;9099;47.958;11.366;2024-01-06T12:59:55;3.40;;;1.92;;
17947;SDS011;9099;47.958;11.366;2024-01-06T13:02:21;3.75;;;2.42;;
17947;SDS011;9099;47.958;11.366;2024-01-06T13:04:48;2.45;;;2.10;;
17947;SDS011;9099;47.958;11.366;2024-01-06T13:07:15;3.30;;;2.05;;
17947;SDS011;9099;47.958;11.366;2024-01-06T13:09:44;2.00;;;1.90;;
17947;SDS011;9099;47.958;11.366;2024-01-06T13:12:11;2.15;;;2.05;;
17947;SDS011;9099;47.958;11.366;2024-01-06T13:14:37;2.38;;;2.10;;
17947;SDS011;9099;47.958;11.366;2024-01-06T13:17:04;2.00;;;1.90;;
17947;SDS011;9099;47.958;11.366;2024-01-06T13:19:31;3.38;;;2.67;;
17947;SDS011;9099;47.958;11.366;2024-01-06T13:21:59;3.20;;;2.90;;
17947;SDS011;9099;47.958;11.366;2024-01-06T13:24:25;4.55;;;4.00;;
17947;SDS011;9099;47.958;11.366;2024-01-06T13:26:54;3.80;;;3.42;;
17947;SDS011;9099;47.958;11.366;2024-01-06T13:29:20;4.20;;;3.53;;
17947;SDS011;9099;47.958;11.366;2024-01-06T13:31:48;3.70;;;3.40;;
17947;SDS011;9099;47.958;11.366;2024-01-06T13:34:15;3.00;;;2.80;;
17947;SDS011;9099;47.958;11.366;2024-01-06T13:36:43;3.08;;;2.78;;
17947;SDS011;9099;47.958;11.366;2024-01-06T13:39:10;3.78;;;3.38;;
17947;SDS011;9099;47.958;11.366;2024-01-06T13:41:44;3.40;;;3.10;;
17947;SDS011;9099;47.958;11.366;2024-01-06T13:44:14;6.00;;;5.00;;
17947;SDS011;9099;47.958;11.366;2024-01-06T13:46:40;5.50;;;5.03;;
17947;SDS011;9099;47.958;11.366;2024-01-06T13:49:09;6.30;;;5.28;;
17947;SDS011;9099;47.958;11.366;2024-01-06T13:51:36;12.85;;;9.75;;
17947;SDS011;9099;47.958;11.366;2024-01-06T13:54:04;8.57;;;7.47;;
17947;SDS011;9099;47.958;11.366;2024-01-06T13:56:31;7.63;;;6.65;;
17947;SDS011;9099;47.958;11.366;2024-01-06T13:58:58;7.35;;;5.43;;
17947;SDS011;9099;47.958;11.366;2024-01-06T14:01:26;4.60;;;4.20;;
17947;SDS011;9099;47.958;11.366;2024-01-06T14:03:53;3.33;;;3.13;;
17947;SDS011;9099;47.958;11.366;2024-01-06T14:06:22;3.22;;;2.92;;
17947;SDS011;9099;47.958;11.366;2024-01-06T14:08:50;10.83;;;7.50;;
17947;SDS011;9099;47.958;11.366;2024-01-06T14:11:17;8.30;;;6.45;;
17947;SDS011;9099;47.958;11.366;2024-01-06T14:13:44;17.73;;;11.43;;
17947;SDS011;9099;47.958;11.366;2024-01-06T14:16:13;6.70;;;6.00;;
17947;SDS011;9099;47.958;11.366;2024-01-06T14:18:41;5.30;;;4.78;;
17947;SDS011;9099;47.958;11.366;2024-01-06T14:21:08;5.07;;;4.68;;
17947;SDS011;9099;47.958;11.366;2024-01-06T14:23:35;5.40;;;5.00;;
17947;SDS011;9099;47.958;11.366;2024-01-06T14:26:02;4.07;;;3.77;;
17947;SDS011;9099;47.958;11.366;2024-01-06T14:28:29;4.22;;;3.92;;
17947;SDS011;9099;47.958;11.366;2024-01-06T14:30:56;4.43;;;4.10;;
17947;SDS011;9099;47.958;11.366;2024-01-06T14:33:23;3.72;;;3.33;;
17947;SDS011;9099;47.958;11.366;2024-01-06T14:35:53;5.78;;;5.28;;
17947;SDS011;9099;47.958;11.366;2024-01-06T14:38:20;4.70;;;4.30;;
17947;SDS011;9099;47.958;11.366;2024-01-06T14:40:46;4.55;;;4.25;;
17947;SDS011;9099;47.958;11.366;2024-01-06T14:43:13;4.40;;;4.10;;
17947;SDS011;9099;47.958;11.366;2024-01-06T14:45:40;3.60;;;3.40;;
17947;SDS011;9099;47.958;11.366;2024-01-06T14:48:07;3.63;;;3.35;;
17947;SDS011;9099;47.958;11.366;2024-01-06T14:50:34;3.30;;;3.10;;